Time;durP1;ratioP1;P1;durP2;ratioP2;P2;SDS_P1;SDS_P2;PMS_P1;PMS_P2;Temp;Humidity;BMP_temperature;BMP_pressure;BME280_temperature;BME280_humidity;BME280_pressure;Samples;Min_cycle;Max_cycle;Signal;HPM_P1;HPM_P2
2023/03/27 00:02:25;;;;;;;2.62;1.20;;;;;;;16.45;59.47;96471.75;4487150;31;20084;-79
2023/03/27 00:04:53;;;;;;;4.05;2.00;;;;;;;16.08;61.27;96465.66;4487037;31;20069;-79
2023/03/27 00:07:20;;;;;;;3.37;1.10;;;;;;;15.60;62.83;96450.84;4486931;31;20107;-80
2023/03/27 00:09:47;;;;;;;5.18;1.25;;;;;;;15.68;64.60;96450.16;4487133;31;20092;-80
2023/03/27 00:12:14;;;;;;;3.20;1.25;;;;;;;15.88;63.51;96447.44;4486989;31;20152;-80
2023/03/27 00:14:41;;;;;;;5.03;1.40;;;;;;;15.83;63.70;96443.59;4486813;31;20080;-80
2023/03/27 00:17:09;;;;;;;3.90;1.37;;;;;;;15.83;64.44;96438.41;4487007;31;20134;-79
2023/03/27 00:23:18;;;;;;;3.83;1.30;;;;;;;15.04;67.03;96415.84;4486996;32;20141;-80
2023/03/27 00:25:49;;;;;;;7.30;1.40;;;;;;;15.18;66.90;96414.62;4488613;31;20421;-79
2023/03/27 00:31:59;;;;;;;;;;;;;;;15.65;64.82;96406.25;4489171;32;20554;-80
2023/03/27 00:34:27;;;;;;;6.95;1.80;;;;;;;15.93;63.09;96401.97;4488505;32;20319;-80
2023/03/27 00:36:55;;;;;;;7.97;2.67;;;;;;;16.43;61.03;96392.97;4488713;31;20145;-79
2023/03/27 00:39:22;;;;;;;6.22;1.95;;;;;;;16.27;60.95;96384.97;4488574;31;20154;-79
2023/03/27 00:41:49;;;;;;;5.65;1.77;;;;;;;16.27;61.72;96384.12;4488462;31;20096;-80
2023/03/27 00:44:33;;;;;;;7.87;2.10;;;;;;;15.90;62.78;96364.91;4488681;31;20095;-79
2023/03/27 00:47:01;;;;;;;3.65;1.40;;;;;;;16.25;62.09;96365.22;4487601;32;20080;-80
2023/03/27 00:53:14;;;;;;;4.15;1.37;;;;;;;16.08;61.82;96356.38;4488721;32;20107;-80
2023/03/27 00:55:46;;;;;;;3.83;1.50;;;;;;;15.55;62.95;96346.44;4487251;32;20136;-80
2023/03/27 00:58:17;;;;;;;4.03;1.40;;;;;;;15.28;64.43;96350.50;4487446;32;20076;-80
2023/03/27 01:00:44;;;;;;;3.33;1.30;;;;;;;15.93;62.47;96352.56;4488600;32;20100;-80
2023/03/27 01:03:11;;;;;;;3.10;1.37;;;;;;;16.12;61.42;96360.34;4488070;31;20450;-80
2023/03/27 01:05:38;;;;;;;2.42;1.10;;;;;;;15.57;62.72;96353.13;4487423;32;20441;-80
2023/03/27 01:08:06;;;;;;;3.10;1.20;;;;;;;16.08;61.46;96359.00;4487333;32;20157;-79
2023/03/27 01:11:11;;;;;;;6.45;1.35;;;;;;;15.69;62.41;96350.41;4488198;31;20510;-80
2023/03/27 01:13:57;;;;;;;2.87;1.20;;;;;;;15.82;62.17;96353.53;4488591;31;20096;-79
2023/03/27 01:17:08;;;;;;;2.65;1.20;;;;;;;15.23;64.15;96354.50;4488279;32;20088;-80
2023/03/27 01:20:03;;;;;;;2.72;1.20;;;;;;;15.89;62.07;96344.22;4472140;31;20076;-79
2023/03/27 01:23:00;;;;;;;6.62;2.22;;;;;;;15.72;63.20;96324.94;4488521;31;20088;-79
2023/03/27 01:25:52;;;;;;;3.90;1.40;;;;;;;15.64;63.52;96308.44;4488407;31;20096;-80
2023/03/27 01:28:54;;;;;;;2.70;1.23;;;;;;;14.33;69.62;96289.59;4488406;31;20072;-79
2023/03/27 01:32:08;;;;;;;3.95;1.20;;;;;;;14.54;68.69;96274.00;4486891;32;20212;-80
2023/03/27 01:35:12;;;;;;;3.65;1.30;;;;;;;13.91;72.51;96263.75;4448120;31;20096;-79
2023/03/27 01:44:16;;;;;;;3.72;1.12;;;;;;;14.26;70.98;96229.66;4488102;32;20122;-80
2023/03/27 01:46:55;;;;;;;2.10;0.65;;;;;;;13.08;73.19;96218.00;4487288;32;20096;-80
2023/03/27 01:49:29;;;;;;;1.12;0.80;;;;;;;12.84;76.96;96210.44;4488435;31;20152;-79
2023/03/27 01:52:00;;;;;;;2.67;1.12;;;;;;;12.73;76.69;96195.75;4487999;31;20239;-80
2023/03/27 01:54:31;;;;;;;2.15;0.88;;;;;;;12.59;77.83;96190.87;4487021;32;20367;-79
2023/03/27 01:57:21;;;;;;;1.67;0.90;;;;;;;12.90;76.70;96191.00;4488296;31;20498;-79
2023/03/27 01:59:52;;;;;;;3.45;1.10;;;;;;;13.09;76.53;96196.31;4486827;32;20155;-80
2023/03/27 02:02:25;;;;;;;2.37;1.12;;;;;;;13.17;75.68;96206.03;4486975;32;20096;-80
2023/03/27 02:05:04;;;;;;;2.87;1.10;;;;;;;13.43;73.74;96204.75;4486834;32;20089;-79
2023/03/27 02:14:07;;;;;;;3.75;1.10;;;;;;;11.77;82.68;96202.50;4487835;32;20168;-80
2023/03/27 02:16:40;;;;;;;1.67;0.85;;;;;;;12.31;79.69;96210.34;4488116;31;20114;-79
2023/03/27 02:19:19;;;;;;;1.62;0.90;;;;;;;12.08;80.90;96207.00;4488028;31;20490;-80
2023/03/27 02:21:47;;;;;;;1.20;0.80;;;;;;;13.42;75.29;96205.69;4486994;32;20120;-79
2023/03/27 02:24:16;;;;;;;1.80;1.17;;;;;;;13.56;73.95;96212.31;4486818;32;20546;-79
2023/03/27 02:26:44;;;;;;;2.55;1.08;;;;;;;13.61;73.42;96212.75;4486633;32;20589;-80
2023/03/27 02:29:36;;;;;;;3.05;1.23;;;;;;;13.81;72.94;96216.25;4486732;32;20104;-80
2023/03/27 02:32:18;;;;;;;3.85;1.02;;;;;;;13.24;76.66;96213.22;4488048;31;20092;-79
2023/03/27 02:35:01;;;;;;;3.83;1.30;;;;;;;13.08;76.87;96211.97;4487770;31;20084;-80
2023/03/27 02:37:46;;;;;;;2.75;1.17;;;;;;;12.02;82.55;96201.50;4486827;32;20137;-79
2023/03/27 02:40:27;;;;;;;3.97;1.30;;;;;;;12.05;83.98;96203.84;4487745;31;20443;-81
2023/03/27 02:43:22;;;;;;;5.07;1.80;;;;;;;12.22;84.17;96208.50;4487957;31;20221;-79
2023/03/27 02:45:53;;;;;;;4.72;1.77;;;;;;;12.00;85.47;96213.69;4487965;31;20530;-79
2023/03/27 02:52:11;;;;;;;5.40;2.17;;;;;;;12.44;82.74;96205.87;4487941;32;20119;-80
2023/03/27 02:54:43;;;;;;;7.43;2.17;;;;;;;13.19;79.30;96205.00;4487693;31;20168;-81
2023/03/27 02:57:14;;;;;;;6.72;2.35;;;;;;;13.62;77.37;96208.41;4486599;32;20085;-80
2023/03/27 02:59:45;;;;;;;5.95;2.58;;;;;;;13.30;78.62;96206.72;4487682;31;20136;-80
2023/03/27 03:02:16;;;;;;;6.85;2.25;;;;;;;13.63;76.53;96204.84;4486440;32;20123;-80
2023/03/27 03:04:47;;;;;;;6.55;1.80;;;;;;;14.13;74.56;96216.09;4486505;32;20421;-79
2023/03/27 03:07:14;;;;;;;6.07;2.12;;;;;;;14.99;69.06;96217.19;4487732;31;20099;-79
2023/03/27 03:13:22;;;;;;;5.53;1.87;;;;;;;15.41;66.68;96209.09;4487689;32;20406;-80
2023/03/27 03:15:49;;;;;;;5.93;2.05;;;;;;;14.22;70.82;96201.50;4487416;31;20097;-80
2023/03/27 03:18:17;;;;;;;4.35;1.70;;;;;;;13.17;76.41;96200.84;4487611;31;20099;-79
2023/03/27 03:20:44;;;;;;;6.57;1.90;;;;;;;13.48;75.77;96197.41;4487620;31;20149;-80
2023/03/27 03:23:11;;;;;;;7.37;2.20;;;;;;;13.95;73.24;96196.94;4487150;32;20391;-80
2023/03/27 03:25:38;;;;;;;5.60;2.20;;;;;;;12.86;78.73;96189.59;4487663;31;20093;-80
2023/03/27 03:32:03;;;;;;;6.45;2.05;;;;;;;12.29;81.90;96196.72;4487505;32;20417;-80
2023/03/27 03:34:32;;;;;;;4.03;2.03;;;;;;;12.64;80.53;96206.84;4487511;31;20097;-79
2023/03/27 03:36:59;;;;;;;5.68;2.12;;;;;;;12.36;81.77;96220.34;4487253;31;20103;-80
2023/03/27 03:39:26;;;;;;;7.72;2.40;;;;;;;13.16;78.53;96210.38;4487317;31;20359;-79
2023/03/27 03:41:53;;;;;;;6.75;2.40;;;;;;;12.74;79.82;96210.34;4487410;31;20080;-79
2023/03/27 03:44:20;;;;;;;5.18;1.70;;;;;;;13.02;78.14;96211.53;4487109;31;20112;-80
2023/03/27 03:46:47;;;;;;;6.28;2.28;;;;;;;12.69;80.52;96214.25;4487428;31;20087;-79
2023/03/27 03:52:42;;;;;;;7.62;2.10;;;;;;;14.23;70.22;96227.31;4487058;32;20098;-80
2023/03/27 03:55:10;;;;;;;5.57;1.80;;;;;;;14.46;69.21;96231.38;4487348;31;20150;-79
2023/03/27 04:02:02;;;;;;;5.55;1.80;;;;;;;14.86;66.96;96227.84;4487254;32;20095;-80
2023/03/27 04:04:30;;;;;;;5.50;1.90;;;;;;;14.33;68.89;96225.56;4486689;32;20156;-80
2023/03/27 04:06:57;;;;;;;3.05;1.58;;;;;;;15.11;64.61;96229.09;4487224;31;20479;-81
2023/03/27 04:09:24;;;;;;;4.45;1.70;;;;;;;14.76;65.67;96220.06;4487037;31;20092;-80
2023/03/27 04:11:51;;;;;;;6.05;1.45;;;;;;;14.80;64.81;96219.81;4486899;31;20145;-81
2023/03/27 04:14:18;;;;;;;5.18;2.05;;;;;;;14.58;65.61;96220.87;4487046;31;20141;-81
2023/03/27 04:16:45;;;;;;;3.05;1.33;;;;;;;14.02;67.17;96201.44;4486935;31;20141;-80
2023/03/27 04:23:20;;;;;;;4.45;1.33;;;;;;;12.11;76.21;96195.56;4487050;32;20123;-80
2023/03/27 04:25:47;;;;;;;4.37;1.33;;;;;;;11.37;75.88;96184.03;4486710;31;20084;-80
2023/03/27 04:28:16;;;;;;;2.50;1.30;;;;;;;10.23;81.76;96175.25;4486843;32;20104;-80
2023/03/27 04:30:44;;;;;;;4.80;1.60;;;;;;;9.92;86.51;96173.97;4486855;31;20088;-80
2023/03/27 04:33:17;;;;;;;2.80;1.40;;;;;;;10.58;83.82;96162.41;4486574;31;20146;-80
2023/03/27 04:35:45;;;;;;;5.32;1.80;;;;;;;10.73;83.80;96169.81;4486840;31;20080;-80
2023/03/27 04:38:36;;;;;;;6.10;1.58;;;;;;;10.85;83.65;96159.56;4486932;31;20100;-80
2023/03/27 04:41:04;;;;;;;4.60;1.60;;;;;;;10.34;86.28;96146.94;4486517;31;20430;-80
2023/03/27 04:43:31;;;;;;;7.20;1.70;;;;;;;10.00;87.63;96139.00;4486554;31;20088;-80
2023/03/27 04:45:58;;;;;;;4.97;1.95;;;;;;;10.61;86.03;96138.94;4486621;31;20081;-80
2023/03/27 04:52:05;;;;;;;;;;;;;;;11.37;81.75;96140.16;4486899;32;20462;-80
2023/03/27 04:54:33;;;;;;;5.47;1.70;;;;;;;12.61;75.39;96165.72;4486261;32;20032;-80
2023/03/27 04:57:00;;;;;;;3.87;1.70;;;;;;;13.35;71.43;96173.47;4486445;31;20144;-80
2023/03/27 04:59:30;;;;;;;7.40;2.17;;;;;;;13.81;68.54;96180.75;4486287;32;20344;-80
2023/03/27 05:01:58;;;;;;;5.97;2.15;;;;;;;13.08;71.88;96186.91;4486165;32;20156;-80
2023/03/27 05:04:25;;;;;;;5.65;1.95;;;;;;;13.14;71.70;96185.59;4486073;31;20088;-80
2023/03/27 05:06:55;;;;;;;7.15;2.50;;;;;;;12.74;73.21;96184.47;4486294;31;20435;-80
2023/03/27 05:12:46;;;;;;;5.93;2.20;;;;;;;13.03;71.56;96187.28;4488527;32;20394;-80
2023/03/27 05:15:14;;;;;;;8.63;2.42;;;;;;;13.41;70.07;96191.09;4488336;31;20089;-81
2023/03/27 05:17:42;;;;;;;7.47;1.98;;;;;;;12.59;72.26;96187.47;4488384;31;20076;-80
2023/03/27 05:20:13;;;;;;;4.72;1.92;;;;;;;12.09;75.96;96190.53;4488362;31;20122;-80
2023/03/27 05:22:40;;;;;;;9.05;2.65;;;;;;;12.82;72.55;96186.44;4488368;31;20108;-80
2023/03/27 05:25:08;;;;;;;6.45;2.30;;;;;;;11.73;78.86;96193.38;4488332;31;20156;-80
2023/03/27 05:27:35;;;;;;;6.45;2.37;;;;;;;11.75;77.41;96183.72;4488432;31;20416;-80
2023/03/27 05:30:03;;;;;;;6.45;2.47;;;;;;;12.15;75.92;96182.31;4488133;32;20108;-80
2023/03/27 05:32:29;;;;;;;5.70;2.37;;;;;;;11.45;79.53;96179.12;4488458;31;20366;-80
2023/03/27 05:34:57;;;;;;;6.43;2.40;;;;;;;11.91;77.23;96184.22;4488252;31;20089;-80
2023/03/27 05:37:23;;;;;;;7.15;2.70;;;;;;;11.82;77.84;96190.94;4488125;31;20476;-80
2023/03/27 05:39:53;;;;;;;5.80;2.35;;;;;;;12.15;77.53;96192.66;4488344;32;20112;-80
2023/03/27 05:42:19;;;;;;;5.00;2.40;;;;;;;11.07;79.81;96187.19;4488308;31;20443;-80
2023/03/27 05:44:46;;;;;;;7.15;2.35;;;;;;;11.48;79.47;96178.88;4488032;31;20141;-80
2023/03/27 05:47:14;;;;;;;6.43;2.40;;;;;;;11.22;80.26;96191.19;4488309;31;20107;-80
2023/03/27 05:53:21;;;;;;;6.32;2.50;;;;;;;11.65;79.21;96190.53;4488177;32;20156;-80
2023/03/27 05:55:54;;;;;;;7.15;2.55;;;;;;;11.19;81.20;96199.19;4488226;32;20136;-81
2023/03/27 06:02:10;;;;;;;6.37;2.37;;;;;;;11.34;79.65;96205.75;4488045;32;20111;-80
2023/03/27 06:04:37;;;;;;;7.20;2.50;;;;;;;11.11;80.10;96204.91;4487422;31;20362;-81
2023/03/27 06:07:04;;;;;;;5.95;2.33;;;;;;;11.10;81.83;96197.28;4487749;31;20099;-80
2023/03/27 06:12:43;;;;;;;9.18;2.60;;;;;;;11.21;80.37;96192.13;4487728;32;20028;-80
2023/03/27 06:15:14;;;;;;;6.07;2.50;;;;;;;10.65;84.29;96204.87;4487994;31;20114;-85
2023/03/27 06:21:52;;;;;;;8.02;2.60;;;;;;;10.58;84.47;96201.06;4488765;32;20098;-86
2023/03/27 06:24:19;;;;;;;6.30;2.37;;;;;;;10.31;85.17;96209.00;4488166;32;20096;-87
2023/03/27 06:26:47;;;;;;;7.62;2.53;;;;;;;10.69;83.35;96212.25;4487270;32;20100;-86
2023/03/27 06:32:57;;;;;;;7.50;2.60;;;;;;;10.59;84.70;96200.13;4487922;32;20149;-86
2023/03/27 06:35:26;;;;;;;9.82;2.37;;;;;;;10.02;88.75;96200.72;4484701;32;20158;-86
2023/03/27 06:38:03;;;;;;;8.02;2.87;;;;;;;10.76;84.23;96204.91;4487286;31;20104;-85
2023/03/27 06:40:31;;;;;;;8.32;3.22;;;;;;;9.90;89.22;96188.72;4487368;31;20157;-86
2023/03/27 06:43:03;;;;;;;9.65;2.80;;;;;;;10.23;88.57;96199.25;4487772;31;20160;-85
2023/03/27 06:45:33;;;;;;;8.65;3.00;;;;;;;10.26;87.20;96185.31;4489437;32;20123;-84
2023/03/27 06:48:02;;;;;;;7.20;2.85;;;;;;;9.86;89.75;96186.31;4487527;32;20104;-85
2023/03/27 06:50:46;;;;;;;9.60;3.12;;;;;;;9.78;90.26;96186.06;4487306;32;20092;-85
2023/03/27 06:53:15;;;;;;;9.63;3.60;;;;;;;9.64;91.07;96186.16;4485987;32;20147;-86
2023/03/27 06:55:52;;;;;;;8.20;3.20;;;;;;;9.89;89.79;96182.75;4487547;31;20560;-85
2023/03/27 06:58:20;;;;;;;8.07;3.05;;;;;;;9.62;90.20;96189.78;4487539;31;20161;-84
2023/03/27 07:00:48;;;;;;;10.38;3.60;;;;;;;9.81;90.63;96195.31;4487145;31;20093;-85
2023/03/27 07:03:16;;;;;;;6.75;3.17;;;;;;;9.70;91.76;96198.63;4487047;31;20084;-84
2023/03/27 07:05:44;;;;;;;10.35;3.60;;;;;;;9.69;90.92;96202.12;4487170;31;20112;-84
2023/03/27 07:08:12;;;;;;;9.90;4.05;;;;;;;9.83;90.97;96202.00;4486872;31;20104;-85
2023/03/27 07:10:43;;;;;;;10.75;3.83;;;;;;;9.77;91.25;96199.84;4487330;31;20088;-84
2023/03/27 07:13:15;;;;;;;10.45;4.12;;;;;;;9.72;91.65;96191.63;4487295;31;20111;-86
2023/03/27 07:15:42;;;;;;;9.15;3.12;;;;;;;9.40;92.17;96193.00;4487009;31;20100;-86
2023/03/27 07:18:09;;;;;;;9.30;3.80;;;;;;;9.54;89.92;96203.97;4487256;31;20145;-86
2023/03/27 07:20:36;;;;;;;9.85;3.80;;;;;;;9.80;89.58;96188.53;4485954;32;20103;-85
2023/03/27 07:23:04;;;;;;;6.97;2.80;;;;;;;10.17;87.02;96196.25;4486074;32;20405;-85
2023/03/27 07:25:36;;;;;;;8.88;3.65;;;;;;;9.62;89.02;96182.87;4487005;31;20100;-86
2023/03/27 07:28:05;;;;;;;9.82;3.90;;;;;;;9.28;91.81;96192.06;4486788;32;20108;-86
2023/03/27 07:30:32;;;;;;;10.43;3.47;;;;;;;9.19;93.53;96187.53;4485985;32;20140;-85
2023/03/27 07:32:59;;;;;;;7.87;3.25;;;;;;;9.23;92.63;96191.53;4486811;31;20072;-86
2023/03/27 07:35:26;;;;;;;7.45;3.20;;;;;;;9.49;89.18;96177.75;4486947;31;20439;-82
2023/03/27 07:37:53;;;;;;;9.95;3.35;;;;;;;9.46;89.78;96195.97;4486798;31;20172;-82
2023/03/27 07:40:21;;;;;;;9.27;3.53;;;;;;;9.79;88.75;96197.19;4487570;31;20664;-83
2023/03/27 07:43:05;;;;;;;8.32;3.20;;;;;;;9.63;89.09;96194.00;4486615;31;20084;-80
2023/03/27 07:45:33;;;;;;;6.85;2.90;;;;;;;10.11;87.44;96193.19;4486802;31;20104;-81
2023/03/27 07:48:07;;;;;;;9.55;3.40;;;;;;;9.90;87.34;96196.44;4486763;31;20139;-81
2023/03/27 07:50:34;;;;;;;7.93;3.40;;;;;;;9.94;86.72;96196.09;4486554;31;20148;-81
2023/03/27 07:53:02;;;;;;;7.10;2.83;;;;;;;10.18;86.09;96205.63;4486727;31;20077;-83
2023/03/27 07:55:30;;;;;;;6.95;2.97;;;;;;;10.26;86.23;96208.53;4486794;31;20096;-81
2023/03/27 07:57:57;;;;;;;9.95;3.12;;;;;;;10.36;84.65;96200.03;4486312;31;20100;-81
2023/03/27 08:00:30;;;;;;;6.65;2.92;;;;;;;10.11;86.12;96202.69;4486705;31;20461;-81
2023/03/27 08:03:07;;;;;;;7.90;2.80;;;;;;;10.31;85.19;96201.28;4486491;31;20080;-80
2023/03/27 08:05:35;;;;;;;7.43;2.97;;;;;;;10.29;84.82;96193.66;4486817;31;20120;-81
2023/03/27 08:08:03;;;;;;;7.12;2.80;;;;;;;10.18;84.65;96196.13;4486460;31;20110;-81
2023/03/27 08:10:30;;;;;;;7.82;2.70;;;;;;;10.05;85.95;96198.75;4486529;31;20561;-81
2023/03/27 08:12:57;;;;;;;7.95;2.40;;;;;;;10.39;83.55;96206.72;4486550;31;20102;-81
2023/03/27 08:15:24;;;;;;;6.43;2.78;;;;;;;10.21;83.50;96202.81;4486988;31;20433;-83
2023/03/27 08:17:53;;;;;;;7.60;2.78;;;;;;;10.15;84.94;96211.81;4486017;31;20160;-83
2023/03/27 08:20:22;;;;;;;6.43;2.75;;;;;;;10.06;84.45;96210.72;4486595;31;20423;-83
2023/03/27 08:22:52;;;;;;;6.55;2.42;;;;;;;10.42;83.93;96215.06;4486355;31;20157;-83
2023/03/27 08:25:23;;;;;;;9.77;2.70;;;;;;;10.25;83.07;96215.44;4486111;31;20088;-84
2023/03/27 08:27:50;;;;;;;6.85;2.60;;;;;;;10.33;83.53;96222.63;4486381;31;20213;-84
2023/03/27 08:30:17;;;;;;;6.53;2.60;;;;;;;9.99;84.25;96203.50;4486558;31;20084;-83
2023/03/27 08:32:45;;;;;;;6.37;2.67;;;;;;;10.28;85.01;96235.84;4486144;31;20081;-83
2023/03/27 08:35:12;;;;;;;6.90;2.90;;;;;;;10.19;83.92;96233.88;4485973;31;20140;-82
2023/03/27 08:37:40;;;;;;;8.48;2.90;;;;;;;10.13;84.51;96217.09;4486221;31;20107;-83
2023/03/27 08:40:17;;;;;;;6.97;2.92;;;;;;;10.24;83.59;96224.09;4485763;31;20080;-83
2023/03/27 08:42:45;;;;;;;8.40;2.70;;;;;;;10.20;82.88;96220.03;4484752;32;20137;-83
2023/03/27 08:45:27;;;;;;;8.65;2.97;;;;;;;10.17;82.00;96222.03;4485965;31;20108;-82
2023/03/27 08:48:03;;;;;;;6.50;2.80;;;;;;;9.74;84.70;96209.53;4488002;31;20129;-82
2023/03/27 08:50:52;;;;;;;8.10;2.80;;;;;;;9.76;85.41;96223.94;4490862;31;20089;-83
2023/03/27 08:53:40;;;;;;;7.10;2.60;;;;;;;10.23;83.62;96232.78;4488754;32;20068;-82
2023/03/27 09:07:03;;;;;;;8.45;3.10;;;;;;;10.04;83.97;96264.09;4487291;31;20085;-80
2023/03/27 09:09:38;;;;;;;7.43;2.70;;;;;;;10.48;80.90;96261.97;4486796;32;20446;-80
2023/03/27 09:12:42;;;;;;;8.15;2.72;;;;;;;10.32;81.47;96267.41;4487030;32;20144;-78
2023/03/27 09:15:24;;;;;;;6.62;2.60;;;;;;;10.40;82.35;96270.22;4487687;31;20107;-77
2023/03/27 09:18:30;;;;;;;6.87;2.83;;;;;;;10.69;79.24;96279.31;4486778;32;20112;-77
2023/03/27 09:21:08;;;;;;;6.43;2.90;;;;;;;10.71;80.98;96292.09;4476974;32;20106;-77
2023/03/27 09:23:44;;;;;;;5.68;2.45;;;;;;;10.92;78.82;96289.75;4488053;32;20449;-75
2023/03/27 09:26:11;;;;;;;8.65;2.87;;;;;;;10.88;79.08;96296.06;4487576;31;20148;-76
2023/03/27 09:28:59;;;;;;;5.65;2.10;;;;;;;11.27;78.06;96305.25;4486343;32;20443;-75
2023/03/27 09:31:30;;;;;;;5.63;2.47;;;;;;;11.11;77.92;96299.56;4488278;31;20092;-76
2023/03/27 09:34:02;;;;;;;7.45;2.53;;;;;;;10.53;80.60;96301.16;4488194;31;20184;-75
2023/03/27 09:36:29;;;;;;;13.57;2.90;;;;;;;11.38;76.96;96307.91;4486668;32;20171;-75
2023/03/27 09:39:06;;;;;;;10.73;2.58;;;;;;;11.05;77.90;96324.06;4487941;31;20085;-75
2023/03/27 09:41:51;;;;;;;7.68;2.70;;;;;;;11.00;80.28;96324.41;4486674;32;20108;-78
2023/03/27 09:44:34;;;;;;;8.57;2.70;;;;;;;10.77;79.29;96325.22;4488194;31;20431;-78
2023/03/27 09:47:45;;;;;;;6.95;2.85;;;;;;;10.68;80.47;96331.03;4487094;32;20084;-78
2023/03/27 09:50:22;;;;;;;7.18;2.58;;;;;;;10.98;77.47;96334.00;4487695;31;20145;-78
2023/03/27 09:53:15;;;;;;;6.62;2.90;;;;;;;10.96;77.75;96324.75;4486956;32;20246;-77
2023/03/27 09:55:51;;;;;;;7.07;2.70;;;;;;;10.76;80.20;96330.50;4487509;31;20118;-78
2023/03/27 09:58:27;;;;;;;8.80;3.20;;;;;;;10.07;81.60;96337.78;4487070;31;20382;-78
2023/03/27 10:01:28;;;;;;;7.62;3.00;;;;;;;10.61;80.60;96340.94;4487844;31;20072;-78
2023/03/27 10:03:58;;;;;;;8.18;3.37;;;;;;;10.76;79.62;96348.56;4477889;32;20417;-79
2023/03/27 10:06:28;;;;;;;8.32;3.45;;;;;;;11.11;78.96;96359.75;4487711;31;20107;-78
2023/03/27 10:09:05;;;;;;;10.48;3.70;;;;;;;10.82;79.19;96354.09;4487834;31;20084;-78
2023/03/27 10:11:35;;;;;;;10.45;4.12;;;;;;;10.19;81.23;96359.31;4486365;32;20469;-79
2023/03/27 10:14:12;;;;;;;9.07;3.92;;;;;;;10.97;78.03;96360.75;4487883;31;20422;-78
2023/03/27 10:16:40;;;;;;;8.48;3.20;;;;;;;10.32;82.07;96376.50;4486349;32;20589;-78
2023/03/27 10:19:23;;;;;;;8.50;3.53;;;;;;;10.84;78.68;96380.59;4487719;31;20106;-78
2023/03/27 10:21:50;;;;;;;10.07;3.33;;;;;;;10.77;78.86;96387.13;4487880;31;20592;-78
2023/03/27 10:24:34;;;;;;;8.23;2.97;;;;;;;10.48;79.37;96390.91;4486271;32;20170;-78
2023/03/27 10:27:20;;;;;;;7.53;3.03;;;;;;;10.79;79.16;96387.03;4487836;31;20620;-77
2023/03/27 10:29:47;;;;;;;7.50;2.92;;;;;;;11.10;76.23;96391.66;4486772;32;20084;-78
2023/03/27 10:32:14;;;;;;;9.55;3.35;;;;;;;11.16;75.31;96386.06;4487529;31;20085;-78
2023/03/27 10:34:56;;;;;;;8.73;3.42;;;;;;;10.30;77.66;96385.22;4487627;31;20144;-78
2023/03/27 10:37:31;;;;;;;7.70;2.85;;;;;;;10.09;79.14;96408.91;4486445;32;20131;-78
2023/03/27 10:40:01;;;;;;;8.40;2.80;;;;;;;10.13;80.04;96415.53;4487623;31;20207;-78
2023/03/27 10:42:30;;;;;;;8.80;3.33;;;;;;;10.90;75.97;96418.87;4487711;31;20487;-78
2023/03/27 10:44:57;;;;;;;8.90;3.10;;;;;;;10.78;76.99;96430.06;4486108;32;20108;-78
2023/03/27 10:47:27;;;;;;;8.90;3.42;;;;;;;10.98;75.79;96432.06;4487728;31;20513;-78
2023/03/27 10:50:20;;;;;;;8.18;3.28;;;;;;;10.42;77.52;96433.41;4486371;32;20084;-78
2023/03/27 10:53:23;;;;;;;8.05;3.10;;;;;;;10.70;78.14;96428.00;4487291;31;20097;-78
2023/03/27 10:55:56;;;;;;;7.80;3.47;;;;;;;10.52;79.15;96429.25;4486463;32;20108;-78
2023/03/27 10:58:32;;;;;;;11.07;3.87;;;;;;;10.49;79.85;96442.34;4487589;31;20108;-78
2023/03/27 11:01:20;;;;;;;8.20;3.30;;;;;;;11.08;77.44;96450.31;4486465;32;20435;-78
2023/03/27 11:03:59;;;;;;;7.37;3.03;;;;;;;10.48;81.97;96451.03;4486437;32;20116;-78
2023/03/27 11:06:30;;;;;;;8.05;3.25;;;;;;;10.71;80.95;96459.78;4486956;31;20100;-78
2023/03/27 11:09:04;;;;;;;10.60;3.08;;;;;;;10.71;79.25;96452.03;4487017;31;20104;-78
2023/03/27 11:11:37;;;;;;;8.75;3.60;;;;;;;10.53;81.91;96461.03;4486531;32;20076;-78
2023/03/27 11:14:10;;;;;;;8.45;3.42;;;;;;;10.33;83.75;96464.97;4487116;31;20148;-78
2023/03/27 11:16:49;;;;;;;10.55;3.60;;;;;;;10.11;84.40;96458.63;4486117;32;20123;-78
2023/03/27 11:19:43;;;;;;;8.10;3.15;;;;;;;10.38;82.84;96474.03;4487427;31;20168;-78
2023/03/27 11:22:13;;;;;;;8.73;3.35;;;;;;;10.50;83.49;96479.28;4487497;31;20076;-78
2023/03/27 11:24:51;;;;;;;9.63;3.72;;;;;;;10.13;84.03;96437.91;4487264;32;20084;-78
2023/03/27 11:27:36;;;;;;;;;;;;;;;9.75;86.06;96479.03;4486320;32;20442;-78
2023/03/27 11:30:07;;;;;;;12.05;3.70;;;;;;;9.99;85.61;96477.44;4487434;32;19972;-78
2023/03/27 11:33:04;;;;;;;11.70;3.97;;;;;;;9.86;87.63;96490.28;4487351;31;20088;-78
2023/03/27 11:35:38;;;;;;;8.98;3.70;;;;;;;10.30;88.64;96498.66;4486670;31;20085;-80
2023/03/27 11:38:19;;;;;;;10.50;3.00;;;;;;;10.14;87.98;96501.41;4486347;32;20096;-80
2023/03/27 11:40:48;;;;;;;6.35;2.37;;;;;;;9.92;89.12;96507.12;4490187;31;20107;-80
2023/03/27 11:43:16;;;;;;;7.93;2.10;;;;;;;9.47;91.93;96532.28;4477616;31;317368;-80
2023/03/27 11:45:51;;;;;;;4.05;1.40;;;;;;;9.19;90.30;96528.00;4472376;32;20518;-80
2023/03/27 11:48:40;;;;;;;2.95;1.30;;;;;;;8.46;95.89;96554.72;4485742;32;20100;-78
2023/03/27 11:51:19;;;;;;;7.53;2.28;;;;;;;8.11;96.08;96548.09;4487386;32;20110;-79
2023/03/27 11:54:02;;;;;;;3.20;1.25;;;;;;;7.48;98.61;96567.88;4487311;31;20133;-80
2023/03/27 11:56:42;;;;;;;2.92;1.00;;;;;;;7.96;97.37;96560.94;4485747;31;20076;-80
2023/03/27 11:59:19;;;;;;;3.00;1.30;;;;;;;7.97;94.58;96553.16;4485932;32;20111;-80
2023/03/27 12:02:01;;;;;;;4.35;1.52;;;;;;;7.36;96.92;96576.22;4486774;31;20514;-79
2023/03/27 12:04:47;;;;;;;3.45;1.40;;;;;;;7.05;99.77;96587.28;4487198;31;20084;-78
2023/03/27 12:07:26;;;;;;;12.95;1.65;;;;;;;7.24;98.88;96587.97;4487075;31;20080;-78
2023/03/27 12:10:12;;;;;;;3.58;1.50;;;;;;;7.12;96.80;96557.81;4486563;32;20088;-78
2023/03/27 12:12:53;;;;;;;3.08;1.35;;;;;;;6.77;98.82;96592.97;4487206;31;20088;-78
2023/03/27 12:15:51;;;;;;;3.25;1.37;;;;;;;6.92;98.89;96602.47;4487046;31;20435;-78
2023/03/27 12:18:36;;;;;;;4.47;1.67;;;;;;;6.76;98.93;96607.53;4486777;32;20142;-79
2023/03/27 12:21:04;;;;;;;6.40;1.40;;;;;;;6.89;96.83;96611.13;4485690;31;20096;-79
2023/03/27 12:23:46;;;;;;;4.30;1.48;;;;;;;5.99;100.00;96623.25;4486667;31;20097;-79
2023/03/27 12:26:27;;;;;;;3.72;1.37;;;;;;;6.10;98.91;96627.84;4486777;31;20351;-77
2023/03/27 12:29:00;;;;;;;1.87;1.10;;;;;;;6.14;100.00;96659.25;4486707;31;20081;-78
2023/03/27 12:32:02;;;;;;;1.25;0.82;;;;;;;5.96;97.45;96638.75;4486538;31;20156;-78
2023/03/27 12:34:36;;;;;;;1.20;1.00;;;;;;;5.72;99.41;96661.13;4485559;32;20104;-78
2023/03/27 12:37:04;;;;;;;1.85;1.20;;;;;;;5.90;98.17;96659.50;4486223;31;20156;-78
2023/03/27 12:39:53;;;;;;;3.15;1.20;;;;;;;5.67;98.17;96668.22;4486562;31;20336;-78
2023/03/27 12:42:50;;;;;;;3.78;1.42;;;;;;;5.60;100.00;96660.88;4485504;32;20096;-78
2023/03/27 12:45:23;;;;;;;2.78;1.50;;;;;;;5.13;100.00;96679.16;4486132;31;20097;-78
2023/03/27 12:48:10;;;;;;;2.70;1.25;;;;;;;5.36;100.00;96678.97;4485299;32;20108;-78
2023/03/27 12:50:45;;;;;;;2.15;1.20;;;;;;;5.58;100.00;96699.31;4478068;32;20072;-78
2023/03/27 12:53:35;;;;;;;2.78;1.30;;;;;;;5.59;98.21;96697.59;4486658;31;20120;-78
2023/03/27 12:56:18;;;;;;;3.97;1.50;;;;;;;5.31;100.00;96708.19;4479921;32;20500;-79
2023/03/27 12:58:50;;;;;;;2.53;1.30;;;;;;;5.67;97.95;96698.09;4486006;31;20084;-78
2023/03/27 13:01:35;;;;;;;2.40;1.40;;;;;;;5.44;96.92;96738.31;4486273;32;20072;-78
2023/03/27 13:04:36;;;;;;;4.60;1.58;;;;;;;5.31;97.07;96729.47;4486278;31;20092;-79
2023/03/27 13:07:09;;;;;;;3.92;1.55;;;;;;;4.71;99.44;96741.38;4485658;31;20110;-78
2023/03/27 13:10:06;;;;;;;5.18;1.95;;;;;;;4.87;98.22;96747.50;4485011;32;20107;-78
2023/03/27 13:13:03;;;;;;;4.78;1.85;;;;;;;4.83;99.88;96742.59;4484696;32;20076;-78
2023/03/27 13:15:38;;;;;;;4.03;1.90;;;;;;;4.88;98.99;96766.22;4484972;32;20112;-77
2023/03/27 13:18:38;;;;;;;3.45;1.70;;;;;;;4.62;97.95;96769.84;4484878;32;20104;-78
2023/03/27 13:21:38;;;;;;;5.43;2.05;;;;;;;4.55;99.51;96796.50;4485667;31;20746;-78
2023/03/27 13:24:31;;;;;;;5.25;1.90;;;;;;;4.45;100.00;96795.19;4484751;32;20072;-77
2023/03/27 13:27:33;;;;;;;6.00;1.92;;;;;;;4.24;100.00;96810.44;4485439;31;20578;-78
2023/03/27 13:30:00;;;;;;;5.32;2.30;;;;;;;4.27;100.00;96802.69;4485977;31;20088;-78
2023/03/27 13:32:36;;;;;;;9.50;2.55;;;;;;;4.15;100.00;96786.97;4487540;31;20585;-78
2023/03/27 13:35:18;;;;;;;5.15;1.95;;;;;;;4.20;100.00;96815.72;4486556;32;20088;-78
2023/03/27 13:37:48;;;;;;;6.60;2.47;;;;;;;4.16;99.74;96794.59;4488130;31;20116;-78